createdAt,value
2022-08-07T00:01:42.975Z,17.90
2022-08-07T00:03:51.692Z,17.90
2022-08-07T00:06:18.563Z,17.90
2022-08-07T00:08:56.074Z,17.90
2022-08-07T00:11:30.045Z,17.90
2022-08-07T00:14:00.144Z,17.90
2022-08-07T00:16:28.638Z,17.80
2022-08-07T00:18:55.556Z,17.80
2022-08-07T00:21:56.705Z,17.80
2022-08-07T00:24:10.357Z,17.70
2022-08-07T00:26:58.987Z,17.70
2022-08-07T00:29:31.349Z,17.70
2022-08-07T00:31:59.713Z,17.70
2022-08-07T00:34:26.974Z,17.60
2022-08-07T00:36:56.273Z,17.60
2022-08-07T00:39:22.967Z,17.70
2022-08-07T00:41:53.715Z,17.70
2022-08-07T00:44:29.589Z,17.70
2022-08-07T00:46:56.236Z,17.70
2022-08-07T00:49:24.963Z,17.60
2022-08-07T00:52:10.001Z,17.60
2022-08-07T00:54:36.804Z,17.60
2022-08-07T00:57:09.170Z,17.60
2022-08-07T00:59:37.443Z,17.50
2022-08-07T01:02:13.982Z,17.50
2022-08-07T01:04:47.038Z,17.50
2022-08-07T01:07:15.171Z,17.40
2022-08-07T01:10:06.252Z,17.40
2022-08-07T01:12:30.882Z,17.40
2022-08-07T01:15:01.070Z,17.40
2022-08-07T01:17:29.038Z,17.30
2022-08-07T01:19:58.405Z,17.20
2022-08-07T01:22:29.338Z,17.30
2022-08-07T01:24:56.911Z,17.30
2022-08-07T01:27:24.261Z,17.30
2022-08-07T01:29:59.082Z,17.30
2022-08-07T01:32:27.981Z,17.30
2022-08-07T01:34:56.002Z,17.30
2022-08-07T01:37:24.521Z,17.30
2022-08-07T01:39:52.303Z,17.30
2022-08-07T01:42:39.319Z,17.30
2022-08-07T01:45:09.875Z,17.20
2022-08-07T01:48:29.654Z,17.30
2022-08-07T01:50:30.021Z,17.30
2022-08-07T01:52:57.752Z,17.20
2022-08-07T01:55:29.550Z,17.20
2022-08-07T01:58:05.858Z,17.30
2022-08-07T02:00:50.509Z,17.30
2022-08-07T02:03:25.006Z,17.20
2022-08-07T02:06:02.348Z,17.20
2022-08-07T02:08:39.196Z,17.20
2022-08-07T02:11:07.181Z,17.20
2022-08-07T02:13:57.683Z,17.20
2022-08-07T02:16:29.938Z,17.20
2022-08-07T02:19:02.225Z,17.20
2022-08-07T02:21:55.848Z,17.30
2022-08-07T02:24:21.205Z,17.20
2022-08-07T02:26:48.920Z,17.20
2022-08-07T02:29:16.082Z,17.30
2022-08-07T02:31:49.710Z,17.30
2022-08-07T02:34:18.578Z,17.20
2022-08-07T02:36:46.108Z,17.20
2022-08-07T02:39:17.326Z,17.20
2022-08-07T02:42:01.029Z,17.20
2022-08-07T02:44:34.297Z,17.20
2022-08-07T02:47:02.457Z,17.30
2022-08-07T02:49:58.092Z,17.30
2022-08-07T02:52:21.506Z,17.30
2022-08-07T02:54:59.114Z,17.20
2022-08-07T02:57:30.863Z,17.30
2022-08-07T03:00:04.672Z,17.30
2022-08-07T03:02:32.554Z,17.30
2022-08-07T03:05:00.222Z,17.30
2022-08-07T03:08:05.341Z,17.30
2022-08-07T03:10:19.674Z,17.30
2022-08-07T03:12:50.671Z,17.30
2022-08-07T03:15:47.433Z,17.40
2022-08-07T03:18:06.041Z,17.40
2022-08-07T03:20:32.851Z,17.30
2022-08-07T03:22:59.720Z,17.30
2022-08-07T03:25:27.461Z,17.30
2022-08-07T03:28:09.371Z,17.30
2022-08-07T03:30:47.610Z,17.30
2022-08-07T03:33:14.824Z,17.30
2022-08-07T03:35:44.162Z,17.30
2022-08-07T03:38:21.498Z,17.20
2022-08-07T03:40:57.777Z,17.20
2022-08-07T03:43:26.595Z,17.20
2022-08-07T03:45:59.730Z,17.20
2022-08-07T03:48:26.944Z,17.20
2022-08-07T03:50:57.860Z,17.30
2022-08-07T03:53:50.064Z,17.20
2022-08-07T03:56:13.670Z,17.20
2022-08-07T03:59:08.189Z,17.20
2022-08-07T04:01:28.848Z,17.30
2022-08-07T04:03:55.639Z,17.20
2022-08-07T04:06:37.761Z,17.30
2022-08-07T04:09:05.709Z,17.30
2022-08-07T04:12:20.766Z,17.30
2022-08-07T04:14:37.705Z,17.30
2022-08-07T04:17:20.440Z,17.40
2022-08-07T04:19:52.939Z,17.30
2022-08-07T04:22:23.572Z,17.40
2022-08-07T04:24:55.975Z,17.40
2022-08-07T04:27:26.626Z,17.50
2022-08-07T04:30:02.054Z,17.40
2022-08-07T04:32:34.528Z,17.50
2022-08-07T04:35:07.078Z,17.50
2022-08-07T04:37:52.835Z,17.40
2022-08-07T04:40:29.683Z,17.40
2022-08-07T04:43:01.698Z,17.40
2022-08-07T04:45:58.093Z,17.50
2022-08-07T04:48:44.758Z,17.50
2022-08-07T04:51:11.693Z,17.50
2022-08-07T04:54:01.898Z,17.50
2022-08-07T04:58:14.866Z,17.50
2022-08-07T05:00:09.410Z,17.60
2022-08-07T05:02:20.498Z,17.60
2022-08-07T05:04:51.476Z,17.60
2022-08-07T05:07:22.045Z,17.60
2022-08-07T05:10:18.002Z,17.60
2022-08-07T05:12:53.668Z,17.60
2022-08-07T05:15:26.187Z,17.70
2022-08-07T05:17:57.016Z,17.70
2022-08-07T05:20:27.069Z,17.60
2022-08-07T05:22:56.972Z,17.60
2022-08-07T05:25:37.352Z,17.70
2022-08-07T05:28:20.221Z,17.70
2022-08-07T05:30:49.708Z,17.80
2022-08-07T05:33:18.033Z,17.90
2022-08-07T05:35:47.916Z,17.90
2022-08-07T05:39:00.017Z,18.10
2022-08-07T05:41:02.531Z,18.10
2022-08-07T05:43:43.380Z,18.20
2022-08-07T05:46:26.613Z,18.30
2022-08-07T05:48:58.382Z,18.30
2022-08-07T05:51:26.312Z,18.30
2022-08-07T05:54:13.790Z,18.40
2022-08-07T05:56:46.655Z,18.40
2022-08-07T05:59:15.181Z,18.40
2022-08-07T06:01:42.955Z,18.40
2022-08-07T06:04:10.644Z,18.50
2022-08-07T06:06:38.279Z,18.50
2022-08-07T06:09:14.853Z,18.50
2022-08-07T06:11:42.492Z,18.60
2022-08-07T06:14:11.884Z,18.60
2022-08-07T06:16:50.061Z,18.70
2022-08-07T06:19:51.766Z,18.70
2022-08-07T06:22:16.204Z,18.70
2022-08-07T06:24:56.906Z,18.80
2022-08-07T06:28:00.623Z,18.90
2022-08-07T06:30:31.876Z,19.00
2022-08-07T06:32:59.565Z,19.20
2022-08-07T06:35:38.983Z,19.20
2022-08-07T06:38:19.953Z,19.20
2022-08-07T06:40:50.138Z,19.20
2022-08-07T06:43:21.262Z,19.20
2022-08-07T06:45:48.989Z,19.30
2022-08-07T06:48:15.752Z,19.20
2022-08-07T06:50:51.862Z,19.30
2022-08-07T06:55:29.001Z,19.40
2022-08-07T06:56:07.704Z,19.50
2022-08-07T07:00:12.533Z,19.50
2022-08-07T07:01:33.206Z,19.50
2022-08-07T07:04:28.383Z,19.40
2022-08-07T07:07:00.265Z,19.40
2022-08-07T07:09:31.105Z,19.50
2022-08-07T07:12:15.673Z,19.40
2022-08-07T07:14:51.808Z,19.40
2022-08-07T07:17:45.410Z,19.30
2022-08-07T07:20:19.048Z,19.30
2022-08-07T07:24:08.691Z,19.30
2022-08-07T07:26:34.426Z,19.30
2022-08-07T07:28:42.656Z,19.40
2022-08-07T07:31:13.178Z,19.50
2022-08-07T07:33:44.857Z,19.70
2022-08-07T07:36:23.289Z,19.70
2022-08-07T07:39:00.534Z,19.80
2022-08-07T07:41:31.005Z,19.70
2022-08-07T07:44:21.482Z,19.90
2022-08-07T07:46:57.242Z,20.00
2022-08-07T07:50:34.881Z,20.10
2022-08-07T07:52:16.958Z,20.10
2022-08-07T07:54:51.377Z,20.10
2022-08-07T07:57:21.401Z,20.10
2022-08-07T08:00:09.248Z,20.20
2022-08-07T08:02:37.875Z,20.20
2022-08-07T08:05:24.954Z,20.20
2022-08-07T08:08:35.313Z,20.10
2022-08-07T08:10:57.929Z,20.00
2022-08-07T08:13:26.054Z,20.10
2022-08-07T08:16:04.902Z,20.20
2022-08-07T08:18:31.903Z,20.30
2022-08-07T08:21:00.921Z,20.30
2022-08-07T08:23:47.456Z,20.40
2022-08-07T08:26:36.516Z,20.50
2022-08-07T08:29:04.106Z,20.70
2022-08-07T08:32:17.353Z,20.70
2022-08-07T08:34:26.615Z,20.80
2022-08-07T08:36:57.725Z,20.80
2022-08-07T08:39:26.224Z,20.90
2022-08-07T08:42:09.217Z,20.90
2022-08-07T08:44:44.708Z,20.80
2022-08-07T08:47:47.274Z,20.90
2022-08-07T08:50:39.734Z,21.10
2022-08-07T08:53:16.579Z,21.30
2022-08-07T08:56:03.631Z,21.60
2022-08-07T08:58:47.302Z,21.70
2022-08-07T09:01:18.651Z,21.80
2022-08-07T09:03:56.758Z,22.10
2022-08-07T09:06:40.215Z,22.10
2022-08-07T09:09:20.762Z,22.00
2022-08-07T09:12:02.787Z,22.30
2022-08-07T09:14:50.622Z,22.50
2022-08-07T09:17:59.061Z,22.70
2022-08-07T09:20:35.918Z,22.80
2022-08-07T09:24:31.969Z,22.80
2022-08-07T09:26:22.622Z,22.80
2022-08-07T09:30:05.112Z,22.80
2022-08-07T09:31:50.107Z,23.10
2022-08-07T09:34:26.156Z,23.20
2022-08-07T09:36:59.779Z,22.90
2022-08-07T09:39:54.943Z,22.60
2022-08-07T09:42:41.730Z,22.50
2022-08-07T09:46:29.092Z,22.30
2022-08-07T09:48:29.878Z,22.40
2022-08-07T09:51:14.607Z,22.30
2022-08-07T09:54:02.380Z,22.20
2022-08-07T09:56:52.671Z,22.40
2022-08-07T09:59:44.583Z,22.40
2022-08-07T10:02:29.621Z,22.60
2022-08-07T10:04:57.276Z,22.70
2022-08-07T10:07:53.766Z,22.60
2022-08-07T10:11:16.684Z,22.60
2022-08-07T10:14:00.941Z,22.50
2022-08-07T10:16:35.298Z,22.40
2022-08-07T10:19:14.145Z,22.40
2022-08-07T10:22:15.467Z,22.60
2022-08-07T10:24:55.649Z,23.00
2022-08-07T10:27:47.612Z,23.10
2022-08-07T10:30:20.037Z,23.10
2022-08-07T10:33:01.908Z,22.80
2022-08-07T10:35:56.357Z,22.80
2022-08-07T10:38:48.755Z,23.00
2022-08-07T10:41:52.865Z,23.20
2022-08-07T10:44:07.794Z,23.20
2022-08-07T10:47:04.317Z,23.00
2022-08-07T10:49:49.115Z,23.00
2022-08-07T10:52:36.692Z,23.00
2022-08-07T10:55:32.600Z,22.80
2022-08-07T10:58:33.037Z,23.00
2022-08-07T11:01:18.583Z,23.10
2022-08-07T11:04:01.268Z,22.90
2022-08-07T11:06:56.598Z,22.90
2022-08-07T11:10:08.004Z,22.80
2022-08-07T11:12:32.144Z,22.80
2022-08-07T11:15:04.232Z,22.70
2022-08-07T11:17:50.708Z,22.70
2022-08-07T11:20:25.929Z,22.70
2022-08-07T11:23:20.853Z,22.90
2022-08-07T11:25:57.555Z,22.80
2022-08-07T11:28:41.260Z,23.00
2022-08-07T11:31:18.459Z,23.10
2022-08-07T11:34:06.349Z,23.30
2022-08-07T11:36:37.150Z,23.40
2022-08-07T11:39:10.142Z,23.40
2022-08-07T11:42:03.320Z,23.50
2022-08-07T11:44:52.650Z,23.60
2022-08-07T11:47:38.798Z,23.70
2022-08-07T11:50:30.972Z,23.90
2022-08-07T11:53:02.654Z,24.10
2022-08-07T11:56:26.169Z,24.10
2022-08-07T11:58:49.741Z,24.00
2022-08-07T12:01:59.741Z,24.00
2022-08-07T12:04:40.468Z,24.00
2022-08-07T12:07:27.230Z,23.90
2022-08-07T12:10:24.107Z,23.90
2022-08-07T12:13:00.742Z,23.80
2022-08-07T12:15:45.953Z,24.00
2022-08-07T12:18:22.320Z,24.30
2022-08-07T12:21:14.935Z,24.40
2022-08-07T12:24:06.789Z,24.50
2022-08-07T12:26:49.112Z,24.40
2022-08-07T12:29:40.221Z,24.50
2022-08-07T12:32:13.080Z,24.50
2022-08-07T12:34:42.113Z,24.70
2022-08-07T12:37:28.625Z,24.60
2022-08-07T12:40:05.025Z,24.70
2022-08-07T12:42:36.662Z,24.90
2022-08-07T12:45:14.539Z,25.00
2022-08-07T12:47:56.902Z,25.00
2022-08-07T12:50:48.970Z,25.00
2022-08-07T12:53:28.535Z,25.00
2022-08-07T12:56:21.318Z,25.00
2022-08-07T12:58:56.937Z,25.00
2022-08-07T13:01:43.849Z,25.10
2022-08-07T13:04:34.253Z,25.00
2022-08-07T13:08:14.139Z,25.10
2022-08-07T13:10:37.857Z,25.50
2022-08-07T13:13:46.844Z,25.70
2022-08-07T13:16:22.337Z,25.30
2022-08-07T13:18:50.756Z,25.10
2022-08-07T13:21:51.057Z,25.10
2022-08-07T13:24:29.194Z,25.10
2022-08-07T13:26:56.223Z,24.90
2022-08-07T13:29:42.496Z,24.80
2022-08-07T13:32:40.109Z,24.90
2022-08-07T13:36:00.932Z,24.90
2022-08-07T13:38:27.399Z,24.80
2022-08-07T13:41:06.450Z,24.80
2022-08-07T13:43:41.251Z,24.90
2022-08-07T13:46:21.938Z,24.80
2022-08-07T13:48:59.558Z,24.80
2022-08-07T13:52:04.842Z,24.80
2022-08-07T13:54:16.624Z,24.70
2022-08-07T13:56:55.848Z,24.50
2022-08-07T13:59:27.427Z,24.50
2022-08-07T14:02:04.505Z,24.40
2022-08-07T14:04:35.648Z,24.30
2022-08-07T14:07:05.983Z,24.20
2022-08-07T14:10:02.091Z,24.10
2022-08-07T14:12:36.278Z,24.20
2022-08-07T14:15:16.533Z,24.30
2022-08-07T14:18:23.567Z,24.10
2022-08-07T14:20:39.940Z,24.10
2022-08-07T14:23:58.653Z,24.20
2022-08-07T14:26:10.518Z,24.20
2022-08-07T14:29:04.338Z,24.40
2022-08-07T14:31:42.418Z,24.30
2022-08-07T14:34:22.735Z,24.60
2022-08-07T14:36:56.303Z,24.50
2022-08-07T14:40:14.613Z,24.40
2022-08-07T14:42:20.915Z,24.40
2022-08-07T14:44:52.249Z,24.30
2022-08-07T14:47:19.449Z,24.20
2022-08-07T14:49:57.265Z,24.20
2022-08-07T14:55:17.765Z,24.10
2022-08-07T14:57:58.126Z,24.10
2022-08-07T15:00:31.093Z,24.00
2022-08-07T15:02:59.202Z,24.00
2022-08-07T15:05:27.608Z,23.90
2022-08-07T15:07:57.890Z,23.80
2022-08-07T15:10:29.677Z,23.70
2022-08-07T15:13:05.546Z,23.70
2022-08-07T15:15:42.003Z,23.60
2022-08-07T15:25:15.573Z,23.50
2022-08-07T15:27:11.224Z,23.40
2022-08-07T15:30:08.843Z,23.40
2022-08-07T15:35:19.337Z,23.30
2022-08-07T15:38:30.516Z,23.20
2022-08-07T15:41:23.043Z,23.10
2022-08-07T15:43:55.817Z,23.10
2022-08-07T15:46:32.508Z,23.10
2022-08-07T15:49:15.120Z,23.30
2022-08-07T15:54:39.523Z,23.20
2022-08-07T15:57:28.331Z,23.20
2022-08-07T15:59:56.540Z,23.20
2022-08-07T16:02:27.638Z,23.10
2022-08-07T16:04:59.013Z,23.10
2022-08-07T16:08:30.285Z,23.20
2022-08-07T16:10:33.330Z,23.20
2022-08-07T16:13:18.082Z,23.40
2022-08-07T16:16:48.186Z,23.40
2022-08-07T16:19:03.553Z,23.50
2022-08-07T16:22:02.303Z,23.70
2022-08-07T16:24:34.177Z,23.80
2022-08-07T16:27:05.944Z,23.70
2022-08-07T16:30:11.760Z,23.50
2022-08-07T16:32:55.538Z,23.40
2022-08-07T16:35:51.971Z,23.20
2022-08-07T16:38:57.431Z,23.00
2022-08-07T16:41:41.588Z,22.80
2022-08-07T16:44:47.154Z,23.00
2022-08-07T16:47:45.508Z,23.10
2022-08-07T16:50:28.021Z,23.20
2022-08-07T16:53:14.993Z,23.30
2022-08-07T16:55:50.467Z,23.20
2022-08-07T16:58:54.331Z,23.20
2022-08-07T17:01:16.717Z,23.10
2022-08-07T17:03:59.523Z,23.00
2022-08-07T17:06:42.524Z,22.90
2022-08-07T17:10:06.940Z,22.80
2022-08-07T17:12:35.926Z,22.60
2022-08-07T17:15:15.703Z,22.50
2022-08-07T17:17:49.061Z,22.40
2022-08-07T17:20:32.836Z,22.30
2022-08-07T17:23:08.660Z,22.20
2022-08-07T17:25:58.532Z,22.00
2022-08-07T17:28:35.498Z,21.90
2022-08-07T17:31:18.044Z,21.80
2022-08-07T17:34:18.056Z,21.70
2022-08-07T17:36:58.065Z,21.60
2022-08-07T17:39:57.698Z,21.50
2022-08-07T17:42:59.194Z,21.40
2022-08-07T17:45:35.978Z,21.40
2022-08-07T17:48:06.727Z,21.30
2022-08-07T17:50:42.379Z,21.30
2022-08-07T17:54:02.387Z,21.20
2022-08-07T17:56:28.601Z,21.10
2022-08-07T17:58:56.867Z,21.10
2022-08-07T18:01:39.322Z,21.10
2022-08-07T18:04:08.057Z,21.00
2022-08-07T18:06:47.439Z,21.00
2022-08-07T18:10:04.649Z,20.90
2022-08-07T18:12:31.366Z,20.90
2022-08-07T18:15:32.814Z,20.90
2022-08-07T18:18:44.805Z,20.90
2022-08-07T18:21:42.131Z,20.90
2022-08-07T18:24:00.416Z,20.80
2022-08-07T18:26:47.613Z,20.70
2022-08-07T18:30:08.388Z,20.60
2022-08-07T18:32:07.468Z,20.60
2022-08-07T18:35:01.645Z,20.60
2022-08-07T18:38:58.810Z,20.60
2022-08-07T18:40:42.358Z,20.60
2022-08-07T18:43:37.278Z,20.60
2022-08-07T18:46:26.653Z,20.50
2022-08-07T18:50:30.416Z,20.50
2022-08-07T18:52:37.995Z,20.50
2022-08-07T18:54:40.298Z,20.40
2022-08-07T18:57:40.095Z,20.40
2022-08-07T19:00:32.403Z,20.40
2022-08-07T19:03:12.099Z,20.30
2022-08-07T19:06:01.891Z,20.30
2022-08-07T19:08:31.098Z,20.30
2022-08-07T19:11:06.856Z,20.20
2022-08-07T19:13:58.532Z,20.10
2022-08-07T19:17:01.093Z,20.10
2022-08-07T19:19:44.222Z,20.00
2022-08-07T19:22:30.902Z,20.00
2022-08-07T19:25:06.914Z,19.90
2022-08-07T19:28:57.820Z,19.90
2022-08-07T19:31:04.781Z,19.90
2022-08-07T19:33:15.605Z,19.80
2022-08-07T19:35:43.935Z,19.80
2022-08-07T19:38:16.719Z,19.80
2022-08-07T19:40:49.681Z,19.80
2022-08-07T19:43:50.276Z,19.90
2022-08-07T19:46:19.409Z,19.80
2022-08-07T19:48:53.456Z,19.80
2022-08-07T19:51:51.324Z,19.80
2022-08-07T19:54:34.268Z,19.70
2022-08-07T19:58:01.820Z,19.70
2022-08-07T19:59:47.975Z,19.70
2022-08-07T20:02:19.758Z,19.70
2022-08-07T20:04:49.263Z,19.70
2022-08-07T20:07:23.628Z,19.60
2022-08-07T20:10:35.178Z,19.60
2022-08-07T20:12:53.867Z,19.60
2022-08-07T20:15:24.670Z,19.60
2022-08-07T20:18:03.530Z,19.60
2022-08-07T20:20:31.706Z,19.50
2022-08-07T20:23:01.352Z,19.50
2022-08-07T20:25:40.372Z,19.50
2022-08-07T20:28:11.930Z,19.40
2022-08-07T20:30:46.884Z,19.30
2022-08-07T20:33:36.242Z,19.30
2022-08-07T20:36:04.872Z,19.30
2022-08-07T20:38:33.836Z,19.20
2022-08-07T20:41:03.865Z,19.20
2022-08-07T20:43:34.011Z,19.20
2022-08-07T20:46:27.529Z,19.20
2022-08-07T20:49:00.715Z,19.10
2022-08-07T20:51:40.562Z,19.00
2022-08-07T20:54:30.272Z,19.00
2022-08-07T20:57:04.658Z,19.00
2022-08-07T21:00:07.873Z,19.00
2022-08-07T21:02:40.147Z,18.90
2022-08-07T21:05:10.257Z,18.90
2022-08-07T21:07:43.536Z,18.80
2022-08-07T21:10:29.703Z,18.80
2022-08-07T21:12:59.739Z,18.80
2022-08-07T21:15:58.325Z,18.70
2022-08-07T21:18:25.563Z,18.70
2022-08-07T21:20:56.089Z,18.70
2022-08-07T21:23:27.241Z,18.70
2022-08-07T21:26:03.471Z,18.60
2022-08-07T21:28:48.029Z,18.60
2022-08-07T21:32:11.010Z,18.50
2022-08-07T21:34:22.288Z,18.50
2022-08-07T21:36:53.911Z,18.50
2022-08-07T21:39:44.973Z,18.50
2022-08-07T21:42:37.593Z,18.40
2022-08-07T21:45:42.124Z,18.40
2022-08-07T21:48:01.419Z,18.40
2022-08-07T21:50:48.517Z,18.40
2022-08-07T21:53:17.319Z,18.40
2022-08-07T21:56:02.823Z,18.50
2022-08-07T21:58:48.295Z,18.40
2022-08-07T22:02:07.026Z,18.40
2022-08-07T22:04:22.611Z,18.50
2022-08-07T22:07:06.794Z,18.40
2022-08-07T22:09:53.838Z,18.40
2022-08-07T22:12:31.404Z,18.50
2022-08-07T22:16:39.459Z,18.50
2022-08-07T22:17:59.885Z,18.50
2022-08-07T22:20:37.085Z,18.50
2022-08-07T22:23:16.159Z,18.50
2022-08-07T22:25:51.296Z,18.50
2022-08-07T22:28:34.001Z,18.40
2022-08-07T22:31:05.576Z,18.30
2022-08-07T22:33:56.801Z,18.30
2022-08-07T22:36:38.464Z,18.30
2022-08-07T22:39:25.673Z,18.30
2022-08-07T22:42:25.784Z,18.20
2022-08-07T22:44:59.115Z,18.10
2022-08-07T22:47:29.489Z,18.10
2022-08-07T22:50:09.025Z,18.00
2022-08-07T22:52:55.528Z,17.90
2022-08-07T22:55:40.917Z,17.90
2022-08-07T22:58:22.709Z,17.90
2022-08-07T23:00:54.227Z,17.80
2022-08-07T23:03:58.418Z,17.80
2022-08-07T23:07:04.937Z,17.70
2022-08-07T23:10:38.203Z,17.60
2022-08-07T23:13:15.253Z,17.60
2022-08-07T23:16:08.774Z,17.60
2022-08-07T23:19:16.030Z,17.50
2022-08-07T23:21:45.512Z,17.50
2022-08-07T23:24:24.202Z,17.50
2022-08-07T23:26:57.703Z,17.50
2022-08-07T23:29:44.018Z,17.40
2022-08-07T23:34:23.187Z,17.50
2022-08-07T23:35:22.498Z,17.40
2022-08-07T23:38:05.394Z,17.40
2022-08-07T23:40:41.157Z,17.40
2022-08-07T23:43:26.867Z,17.30
2022-08-07T23:46:24.029Z,17.30
2022-08-07T23:49:23.651Z,17.20
2022-08-07T23:53:00.015Z,17.20
2022-08-07T23:55:09.582Z,17.10
2022-08-07T23:57:39.121Z,17.10
